createdAt,value
2019-02-06T00:01:33.341Z,100495.02
2019-02-06T00:04:00.876Z,100484.71
2019-02-06T00:06:28.342Z,100488.73
2019-02-06T00:08:55.890Z,100486.92
2019-02-06T00:11:23.374Z,100483.73
2019-02-06T00:13:50.911Z,100484.20
2019-02-06T00:16:18.462Z,100483.09
2019-02-06T00:18:45.928Z,100479.10
2019-02-06T00:21:13.402Z,100481.86
2019-02-06T00:23:40.968Z,100488.66
2019-02-06T00:26:08.499Z,100486.77
2019-02-06T00:28:36.738Z,100482.30
2019-02-06T00:31:04.232Z,100478.28
2019-02-06T00:33:31.734Z,100471.28
2019-02-06T00:35:59.293Z,100471.23
2019-02-06T00:38:26.786Z,100469.37
2019-02-06T00:40:54.254Z,100456.77
2019-02-06T00:43:21.742Z,100454.37
2019-02-06T00:45:49.222Z,100450.98
2019-02-06T00:48:16.672Z,100453.84
2019-02-06T00:50:44.193Z,100447.41
2019-02-06T00:53:11.689Z,100446.02
2019-02-06T00:55:39.190Z,100442.34
2019-02-06T00:58:06.716Z,100449.02
2019-02-06T01:00:34.158Z,100452.45
2019-02-06T01:03:01.628Z,100450.73
2019-02-06T01:05:38.019Z,100447.47
2019-02-06T01:07:56.605Z,100448.47
2019-02-06T01:10:24.104Z,100449.39
2019-02-06T01:12:51.582Z,100448.13
2019-02-06T01:15:19.087Z,100451.89
2019-02-06T01:17:46.604Z,100446.72
2019-02-06T01:20:14.828Z,100442.62
2019-02-06T01:22:42.296Z,100444.22
2019-02-06T01:25:09.790Z,100437.80
2019-02-06T01:27:37.267Z,100438.54
2019-02-06T01:30:13.157Z,100437.09
2019-02-06T01:32:40.589Z,100444.22
2019-02-06T01:35:08.723Z,100442.37
2019-02-06T01:37:37.183Z,100444.66
2019-02-06T01:40:04.675Z,100453.05
2019-02-06T01:42:32.124Z,100446.37
2019-02-06T01:44:59.582Z,100445.72
2019-02-06T01:47:27.036Z,100448.44
2019-02-06T01:49:54.533Z,100445.41
2019-02-06T01:52:22.076Z,100447.26
2019-02-06T01:54:49.677Z,100436.80
2019-02-06T01:57:17.557Z,100438.34
2019-02-06T01:59:45.066Z,100444.23
2019-02-06T02:02:12.529Z,100441.77
2019-02-06T02:04:40.009Z,100435.59
2019-02-06T02:07:07.665Z,100432.52
2019-02-06T02:09:35.144Z,100428.92
2019-02-06T02:12:02.585Z,100425.98
2019-02-06T02:14:30.118Z,100418.20
2019-02-06T02:16:57.561Z,100410.09
2019-02-06T02:19:25.038Z,100408.38
2019-02-06T02:21:52.515Z,100407.86
2019-02-06T02:24:19.945Z,100401.47
2019-02-06T02:26:47.472Z,100396.28
2019-02-06T02:29:14.976Z,100382.69
2019-02-06T02:31:43.545Z,100377.28
2019-02-06T02:34:11.058Z,100371.26
2019-02-06T02:36:38.571Z,100367.66
2019-02-06T02:39:06.046Z,100366.45
2019-02-06T02:41:33.598Z,100362.73
2019-02-06T02:44:01.161Z,100355.08
2019-02-06T02:46:28.678Z,100356.20
2019-02-06T02:48:56.145Z,100356.70
2019-02-06T02:51:23.593Z,100348.31
2019-02-06T02:53:51.048Z,100349.94
2019-02-06T02:56:18.600Z,100348.19
2019-02-06T02:58:46.088Z,100342.20
2019-02-06T03:01:16.348Z,100339.23
2019-02-06T03:03:45.384Z,100339.23
2019-02-06T03:06:12.936Z,100335.66
2019-02-06T03:08:40.307Z,100327.09
2019-02-06T03:11:07.820Z,100325.19
2019-02-06T03:13:35.358Z,100323.16
2019-02-06T03:16:02.834Z,100324.64
2019-02-06T03:18:30.305Z,100325.25
2019-02-06T03:20:57.771Z,100319.28
2019-02-06T03:23:25.224Z,100312.08
2019-02-06T03:25:52.699Z,100300.27
2019-02-06T03:28:20.198Z,100295.19
2019-02-06T03:30:47.664Z,100293.24
2019-02-06T03:33:15.132Z,100291.00
2019-02-06T03:35:42.628Z,100288.95
2019-02-06T03:38:10.125Z,100287.77
2019-02-06T03:40:37.675Z,100289.48
2019-02-06T03:43:05.144Z,100285.72
2019-02-06T03:45:32.614Z,100279.71
2019-02-06T03:48:00.112Z,100285.03
2019-02-06T03:50:27.562Z,100287.43
2019-02-06T03:52:55.049Z,100284.56
2019-02-06T03:55:22.511Z,100284.02
2019-02-06T03:57:49.996Z,100290.27
2019-02-06T04:00:18.493Z,100287.04
2019-02-06T04:02:45.970Z,100283.75
2019-02-06T04:05:13.432Z,100280.41
2019-02-06T04:07:40.927Z,100275.25
2019-02-06T04:10:09.187Z,100274.03
2019-02-06T04:12:36.638Z,100275.68
2019-02-06T04:15:04.113Z,100270.63
2019-02-06T04:17:31.577Z,100261.39
2019-02-06T04:19:59.054Z,100259.50
2019-02-06T04:22:26.535Z,100259.34
2019-02-06T04:24:54.051Z,100267.81
2019-02-06T04:27:21.645Z,100259.26
2019-02-06T04:29:49.047Z,100250.87
2019-02-06T04:32:16.482Z,100253.25
2019-02-06T04:34:43.950Z,100255.09
2019-02-06T04:37:11.435Z,100258.47
2019-02-06T04:39:38.922Z,100254.75
2019-02-06T04:42:06.372Z,100248.08
2019-02-06T04:44:33.848Z,100243.60
2019-02-06T04:47:03.030Z,100241.70
2019-02-06T04:49:30.636Z,100235.31
2019-02-06T04:51:58.179Z,100231.22
2019-02-06T04:54:25.714Z,100231.84
2019-02-06T04:56:53.102Z,100224.53
2019-02-06T04:59:20.630Z,100231.11
2019-02-06T05:01:48.122Z,100231.17
2019-02-06T05:04:15.587Z,100230.19
2019-02-06T05:06:43.063Z,100230.00
2019-02-06T05:09:11.078Z,100234.39
2019-02-06T05:11:38.583Z,100227.66
2019-02-06T05:14:06.063Z,100223.70
2019-02-06T05:16:33.525Z,100228.34
2019-02-06T05:19:01.027Z,100227.66
2019-02-06T05:21:28.499Z,100225.56
2019-02-06T05:23:55.939Z,100225.51
2019-02-06T05:26:23.398Z,100221.09
2019-02-06T05:28:50.895Z,100217.52
2019-02-06T05:31:18.363Z,100216.50
2019-02-06T05:33:45.825Z,100219.18
2019-02-06T05:36:13.294Z,100214.16
2019-02-06T05:38:41.734Z,100210.73
2019-02-06T05:41:09.181Z,100210.80
2019-02-06T05:43:36.701Z,100212.34
2019-02-06T05:46:04.139Z,100203.67
2019-02-06T05:48:31.633Z,100203.33
2019-02-06T05:50:59.125Z,100207.08
2019-02-06T05:53:26.586Z,100205.19
2019-02-06T05:55:54.034Z,100201.83
2019-02-06T05:58:23.027Z,100198.41
2019-02-06T06:00:50.642Z,100195.48
2019-02-06T06:03:18.117Z,100185.11
2019-02-06T06:05:45.554Z,100182.38
2019-02-06T06:08:13.092Z,100184.37
2019-02-06T06:10:40.551Z,100190.77
2019-02-06T06:13:08.119Z,100185.30
2019-02-06T06:15:35.580Z,100183.35
2019-02-06T06:18:03.051Z,100187.05
2019-02-06T06:20:30.536Z,100184.47
2019-02-06T06:22:57.994Z,100190.91
2019-02-06T06:25:25.519Z,100180.86
2019-02-06T06:27:52.994Z,100177.94
2019-02-06T06:30:20.496Z,100167.75
2019-02-06T06:32:48.025Z,100174.73
2019-02-06T06:35:15.494Z,100170.39
2019-02-06T06:37:42.977Z,100170.97
2019-02-06T06:40:12.078Z,100163.38
2019-02-06T06:42:40.481Z,100169.64
2019-02-06T06:45:08.732Z,100166.72
2019-02-06T06:47:37.061Z,100174.43
2019-02-06T06:50:04.524Z,100171.89
2019-02-06T06:52:31.975Z,100162.63
2019-02-06T06:54:59.484Z,100156.83
2019-02-06T06:57:26.999Z,100143.46
2019-02-06T06:59:55.640Z,100152.18
2019-02-06T07:02:21.993Z,100148.27
2019-02-06T07:04:49.571Z,100148.50
2019-02-06T07:07:17.067Z,100142.73
2019-02-06T07:09:44.558Z,100139.41
2019-02-06T07:12:12.102Z,100142.61
2019-02-06T07:14:39.599Z,100140.66
2019-02-06T07:17:07.119Z,100152.01
2019-02-06T07:19:34.633Z,100153.04
2019-02-06T07:22:02.154Z,100155.13
2019-02-06T07:24:29.631Z,100155.56
2019-02-06T07:26:57.109Z,100144.75
2019-02-06T07:29:24.574Z,100151.91
2019-02-06T07:31:52.056Z,100150.52
2019-02-06T07:34:19.535Z,100158.45
2019-02-06T07:36:47.025Z,100149.03
2019-02-06T07:39:14.455Z,100143.48
2019-02-06T07:41:41.919Z,100138.23
2019-02-06T07:44:09.385Z,100145.89
2019-02-06T07:46:36.846Z,100139.73
2019-02-06T07:49:04.352Z,100144.23
2019-02-06T07:51:31.801Z,100149.86
2019-02-06T07:54:00.529Z,100144.75
2019-02-06T07:56:27.981Z,100150.50
2019-02-06T07:58:55.453Z,100145.23
2019-02-06T08:01:22.889Z,100152.52
2019-02-06T08:03:50.387Z,100154.09
2019-02-06T08:06:17.888Z,100155.79
2019-02-06T08:08:45.339Z,100157.01
2019-02-06T08:11:12.782Z,100150.30
2019-02-06T08:13:41.435Z,100152.41
2019-02-06T08:16:09.081Z,100152.33
2019-02-06T08:18:36.578Z,100152.92
2019-02-06T08:21:04.033Z,100149.02
2019-02-06T08:23:31.483Z,100147.14
2019-02-06T08:25:58.977Z,100142.80
2019-02-06T08:28:26.440Z,100146.81
2019-02-06T08:30:53.959Z,100139.73
2019-02-06T08:33:21.423Z,100133.39
2019-02-06T08:35:48.916Z,100129.06
2019-02-06T08:38:16.489Z,100133.61
2019-02-06T08:40:44.983Z,100139.70
2019-02-06T08:43:12.442Z,100135.82
2019-02-06T08:45:39.955Z,100136.53
2019-02-06T08:48:07.429Z,100134.94
2019-02-06T08:50:34.892Z,100142.41
2019-02-06T08:53:02.324Z,100142.63
2019-02-06T08:55:30.715Z,100147.42
2019-02-06T08:57:59.699Z,100153.34
2019-02-06T09:00:32.042Z,100148.56
2019-02-06T09:02:59.491Z,100147.95
2019-02-06T09:05:26.981Z,100141.83
2019-02-06T09:07:54.465Z,100159.58
2019-02-06T09:10:21.959Z,100156.41
2019-02-06T09:12:49.455Z,100150.81
2019-02-06T09:15:16.977Z,100153.93
2019-02-06T09:17:44.444Z,100146.95
2019-02-06T09:20:12.671Z,100151.89
2019-02-06T09:22:40.134Z,100154.28
2019-02-06T09:25:07.673Z,100158.75
2019-02-06T09:27:35.143Z,100157.56
2019-02-06T09:30:02.602Z,100151.67
2019-02-06T09:32:30.095Z,100155.23
2019-02-06T09:34:57.550Z,100153.20
2019-02-06T09:37:25.054Z,100147.25
2019-02-06T09:39:52.514Z,100154.89
2019-02-06T09:42:20.002Z,100150.77
2019-02-06T09:44:47.569Z,100151.20
2019-02-06T09:47:15.010Z,100152.81
2019-02-06T09:49:42.465Z,100152.91
2019-02-06T09:52:09.926Z,100158.06
2019-02-06T09:54:37.375Z,100165.18
2019-02-06T09:57:04.833Z,100167.86
2019-02-06T09:59:32.295Z,100162.91
2019-02-06T10:01:59.798Z,100174.33
2019-02-06T10:04:27.250Z,100168.30
2019-02-06T10:06:54.719Z,100167.85
2019-02-06T10:09:23.140Z,100163.36
2019-02-06T10:11:50.300Z,100167.52
2019-02-06T10:14:17.817Z,100165.48
2019-02-06T10:16:45.312Z,100167.12
2019-02-06T10:19:13.718Z,100165.53
2019-02-06T10:21:41.106Z,100162.27
2019-02-06T10:24:08.621Z,100168.38
2019-02-06T10:26:36.064Z,100161.64
2019-02-06T10:29:04.547Z,100165.42
2019-02-06T10:31:32.890Z,100167.61
2019-02-06T10:33:59.526Z,100164.29
2019-02-06T10:36:27.012Z,100171.39
2019-02-06T10:38:54.500Z,100156.07
2019-02-06T10:41:21.965Z,100163.40
2019-02-06T10:43:49.453Z,100157.89
2019-02-06T10:46:18.338Z,100161.18
2019-02-06T10:48:44.711Z,100155.28
2019-02-06T10:51:12.195Z,100155.50
2019-02-06T10:53:39.707Z,100154.39
2019-02-06T10:56:07.196Z,100150.11
2019-02-06T10:58:34.650Z,100145.31
2019-02-06T11:01:02.165Z,100141.54
2019-02-06T11:03:29.605Z,100137.11
2019-02-06T11:05:57.087Z,100135.86
2019-02-06T11:08:24.553Z,100128.75
2019-02-06T11:10:52.034Z,100135.45
2019-02-06T11:13:19.507Z,100120.84
2019-02-06T11:15:46.967Z,100125.84
2019-02-06T11:18:14.479Z,100122.39
2019-02-06T11:20:42.057Z,100120.48
2019-02-06T11:23:09.546Z,100117.29
2019-02-06T11:25:37.056Z,100119.42
2019-02-06T11:28:04.535Z,100105.21
2019-02-06T11:30:32.042Z,100106.47
2019-02-06T11:32:59.538Z,100112.40
2019-02-06T11:35:27.047Z,100108.23
2019-02-06T11:37:55.290Z,100104.39
2019-02-06T11:40:22.836Z,100102.29
2019-02-06T11:42:50.331Z,100103.00
2019-02-06T11:45:17.827Z,100101.70
2019-02-06T11:47:45.392Z,100101.95
2019-02-06T11:50:12.827Z,100095.81
2019-02-06T11:52:40.397Z,100080.52
2019-02-06T11:55:08.673Z,100086.65
2019-02-06T11:57:35.350Z,100080.64
2019-02-06T12:00:02.815Z,100078.11
2019-02-06T12:02:37.046Z,100076.87
2019-02-06T12:04:57.756Z,100075.67
2019-02-06T12:07:25.214Z,100073.20
2019-02-06T12:09:52.667Z,100074.73
2019-02-06T12:12:20.143Z,100074.67
2019-02-06T12:14:47.649Z,100067.28
2019-02-06T12:17:15.107Z,100067.83
2019-02-06T12:19:42.539Z,100064.70
2019-02-06T12:22:10.057Z,100057.45
2019-02-06T12:24:37.525Z,100052.14
2019-02-06T12:27:05.018Z,100049.02
2019-02-06T12:29:32.484Z,100040.96
2019-02-06T12:31:59.976Z,100038.61
2019-02-06T12:34:27.486Z,100038.75
2019-02-06T12:36:54.960Z,100024.98
2019-02-06T12:39:22.802Z,100023.75
2019-02-06T12:41:50.249Z,100030.81
2019-02-06T12:44:17.707Z,100024.82
2019-02-06T12:46:45.238Z,100012.69
2019-02-06T12:49:14.549Z,100020.66
2019-02-06T12:51:40.336Z,100021.28
2019-02-06T12:54:07.857Z,100023.12
2019-02-06T12:56:35.333Z,100014.56
2019-02-06T12:59:02.823Z,100017.59
2019-02-06T13:01:30.292Z,100007.22
2019-02-06T13:03:57.811Z,100006.92
2019-02-06T13:06:26.042Z,100003.84
2019-02-06T13:08:53.557Z,99997.84
2019-02-06T13:11:21.021Z,99991.50
2019-02-06T13:13:48.513Z,99987.88
2019-02-06T13:16:16.011Z,99986.23
2019-02-06T13:18:44.372Z,99986.06
2019-02-06T13:21:12.014Z,99973.42
2019-02-06T13:23:39.483Z,99976.23
2019-02-06T13:26:06.926Z,99970.89
2019-02-06T13:28:34.407Z,99971.41
2019-02-06T13:31:01.875Z,99967.06
2019-02-06T13:33:29.390Z,99967.27
2019-02-06T13:35:56.879Z,99971.02
2019-02-06T13:38:26.261Z,99965.71
2019-02-06T13:40:54.610Z,99960.11
2019-02-06T13:43:22.255Z,99952.98
2019-02-06T13:45:49.701Z,99951.44
2019-02-06T13:48:17.270Z,99946.60
2019-02-06T13:50:44.748Z,99943.59
2019-02-06T13:53:12.227Z,99938.96
2019-02-06T13:55:39.707Z,99944.00
2019-02-06T13:58:07.183Z,99947.92
2019-02-06T14:00:34.616Z,99949.56
2019-02-06T14:03:02.088Z,99944.54
2019-02-06T14:05:29.560Z,99927.59
2019-02-06T14:07:57.791Z,99933.27
2019-02-06T14:10:25.274Z,99932.53
2019-02-06T14:12:52.738Z,99929.52
2019-02-06T14:15:20.338Z,99926.88
2019-02-06T14:17:47.928Z,99927.02
2019-02-06T14:20:15.548Z,99925.63
2019-02-06T14:22:43.037Z,99918.37
2019-02-06T14:25:29.080Z,99915.28
2019-02-06T14:28:29.265Z,99919.97
2019-02-06T14:31:15.275Z,99911.34
2019-02-06T14:34:00.403Z,99904.20
2019-02-06T14:36:41.470Z,99900.63
2019-02-06T14:39:11.687Z,99888.08
2019-02-06T14:41:43.445Z,99882.67
2019-02-06T14:44:13.727Z,99887.39
2019-02-06T14:46:50.583Z,99890.36
2019-02-06T14:49:45.556Z,99891.19
2019-02-06T14:52:37.809Z,99882.19
2019-02-06T14:55:15.198Z,99874.54
2019-02-06T14:57:49.242Z,99870.26
2019-02-06T15:00:24.380Z,99863.50
2019-02-06T15:03:10.179Z,99855.83
2019-02-06T15:05:39.495Z,99859.44
2019-02-06T15:08:11.807Z,99862.02
2019-02-06T15:10:46.840Z,99862.32
2019-02-06T15:13:21.022Z,99860.75
2019-02-06T15:16:04.973Z,99859.87
2019-02-06T15:18:34.217Z,99861.56
2019-02-06T15:24:17.642Z,99851.72
2019-02-06T15:27:08.475Z,99850.92
2019-02-06T15:29:55.406Z,99842.27
2019-02-06T15:32:40.576Z,99843.44
2019-02-06T15:35:25.682Z,99839.98
2019-02-06T15:38:15.941Z,99838.47
2019-02-06T15:40:54.868Z,99837.42
2019-02-06T15:43:39.748Z,99828.58
2019-02-06T15:46:25.052Z,99830.80
2019-02-06T15:49:02.214Z,99828.95
2019-02-06T15:51:34.636Z,99820.84
2019-02-06T15:54:23.318Z,99825.13
2019-02-06T15:57:00.466Z,99821.00
2019-02-06T15:59:27.943Z,99815.20
2019-02-06T16:01:57.064Z,99816.52
2019-02-06T16:04:34.205Z,99808.20
2019-02-06T16:07:13.257Z,99812.27
2019-02-06T16:09:52.541Z,99815.44
2019-02-06T16:12:20.883Z,99806.45
2019-02-06T16:14:58.308Z,99819.27
2019-02-06T16:17:42.329Z,99809.00
2019-02-06T16:20:31.589Z,99815.35
2019-02-06T16:23:03.616Z,99802.00
2019-02-06T16:25:48.813Z,99804.23
2019-02-06T16:31:31.637Z,99797.39
2019-02-06T16:34:04.883Z,99791.72
2019-02-06T16:36:38.909Z,99786.54
2019-02-06T16:39:06.469Z,99785.09
2019-02-06T16:41:37.736Z,99782.01
2019-02-06T16:44:34.989Z,99785.67
2019-02-06T16:47:12.163Z,99788.20
2019-02-06T16:49:44.576Z,99780.63
2019-02-06T16:52:12.054Z,99777.29
2019-02-06T16:55:00.182Z,99778.84
2019-02-06T16:57:28.565Z,99774.67
2019-02-06T17:00:05.707Z,99773.56
2019-02-06T17:02:36.863Z,99775.38
2019-02-06T17:05:30.746Z,99773.83
2019-02-06T17:08:23.045Z,99785.81
2019-02-06T17:10:57.105Z,99787.88
2019-02-06T17:13:44.669Z,99797.70
2019-02-06T17:16:21.097Z,99792.67
2019-02-06T17:19:06.052Z,99792.30
2019-02-06T17:22:04.161Z,99794.87
2019-02-06T17:24:32.522Z,99788.17
2019-02-06T17:27:05.426Z,99784.11
2019-02-06T17:29:53.263Z,99780.67
2019-02-06T17:32:31.494Z,99782.23
2019-02-06T17:35:17.449Z,99776.34
2019-02-06T17:37:47.823Z,99767.27
2019-02-06T17:40:32.990Z,99762.30
2019-02-06T17:43:01.351Z,99767.94
2019-02-06T17:45:44.405Z,99760.95
2019-02-06T17:48:15.357Z,99755.76
2019-02-06T17:50:42.786Z,99756.19
2019-02-06T17:53:30.800Z,99756.86
2019-02-06T17:55:58.237Z,99753.75
2019-02-06T17:58:26.021Z,99756.33
2019-02-06T18:00:55.246Z,99753.01
2019-02-06T18:03:22.713Z,99747.15
2019-02-06T18:05:50.214Z,99754.56
2019-02-06T18:08:17.676Z,99755.17
2019-02-06T18:10:45.127Z,99751.34
2019-02-06T18:13:12.557Z,99753.52
2019-02-06T18:15:40.031Z,99746.98
2019-02-06T18:18:07.452Z,99748.91
2019-02-06T18:20:34.914Z,99749.47
2019-02-06T18:23:02.397Z,99748.55
2019-02-06T18:25:29.831Z,99757.43
2019-02-06T18:27:57.340Z,99755.45
2019-02-06T18:30:24.795Z,99746.88
2019-02-06T18:32:52.305Z,99747.80
2019-02-06T18:35:19.770Z,99742.48
2019-02-06T18:37:47.199Z,99733.22
2019-02-06T18:40:14.643Z,99729.47
2019-02-06T18:42:42.115Z,99731.19
2019-02-06T18:45:10.544Z,99722.17
2019-02-06T18:47:38.017Z,99719.61
2019-02-06T18:50:05.464Z,99723.59
2019-02-06T18:52:32.921Z,99724.70
2019-02-06T18:55:00.356Z,99715.48
2019-02-06T18:57:27.817Z,99716.10
2019-02-06T18:59:55.341Z,99710.65
2019-02-06T19:02:22.827Z,99719.62
2019-02-06T19:04:50.350Z,99735.16
2019-02-06T19:07:17.824Z,99716.70
2019-02-06T19:09:45.353Z,99711.72
2019-02-06T19:12:12.897Z,99707.12
2019-02-06T19:14:40.377Z,99709.13
2019-02-06T19:17:07.852Z,99704.67
2019-02-06T19:19:35.319Z,99697.20
2019-02-06T19:22:02.760Z,99689.63
2019-02-06T19:24:30.246Z,99691.59
2019-02-06T19:26:57.839Z,99678.45
2019-02-06T19:29:25.323Z,99678.73
2019-02-06T19:31:52.762Z,99677.62
2019-02-06T19:34:20.225Z,99682.05
2019-02-06T19:36:47.692Z,99676.45
2019-02-06T19:39:15.197Z,99677.12
2019-02-06T19:41:42.662Z,99666.29
2019-02-06T19:44:11.413Z,99671.68
2019-02-06T19:46:37.607Z,99676.39
2019-02-06T19:49:05.082Z,99676.36
2019-02-06T19:51:32.550Z,99673.00
2019-02-06T19:54:00.047Z,99665.86
2019-02-06T19:56:28.333Z,99669.21
2019-02-06T19:58:55.788Z,99674.74
2019-02-06T20:04:03.456Z,99664.06
2019-02-06T20:06:30.947Z,99664.36
2019-02-06T20:08:58.566Z,99665.45
2019-02-06T20:11:26.007Z,99660.47
2019-02-06T20:13:53.460Z,99660.77
2019-02-06T20:16:20.936Z,99652.41
2019-02-06T20:18:48.435Z,99652.66
2019-02-06T20:21:15.930Z,99649.52
2019-02-06T20:23:43.408Z,99645.95
2019-02-06T20:26:10.858Z,99642.52
2019-02-06T20:28:38.371Z,99629.19
2019-02-06T20:31:05.873Z,99640.19
2019-02-06T20:33:34.245Z,99636.88
2019-02-06T20:36:01.846Z,99634.51
2019-02-06T20:38:29.309Z,99635.20
2019-02-06T20:40:56.770Z,99626.91
2019-02-06T20:43:24.238Z,99631.28
2019-02-06T20:45:51.714Z,99623.41
2019-02-06T20:48:19.215Z,99613.41
2019-02-06T20:50:46.696Z,99611.06
2019-02-06T20:53:14.217Z,99608.69
2019-02-06T20:55:41.684Z,99610.45
2019-02-06T20:58:09.125Z,99603.92
2019-02-06T21:00:37.417Z,99597.12
2019-02-06T21:03:04.916Z,99602.99
2019-02-06T21:05:32.397Z,99597.45
2019-02-06T21:07:59.914Z,99594.44
2019-02-06T21:10:29.008Z,99592.42
2019-02-06T21:12:56.457Z,99587.80
2019-02-06T21:15:23.935Z,99590.52
2019-02-06T21:17:51.385Z,99584.88
2019-02-06T21:20:18.829Z,99578.21
2019-02-06T21:22:46.294Z,99582.92
2019-02-06T21:25:13.738Z,99578.75
2019-02-06T21:27:41.192Z,99576.22
2019-02-06T21:30:17.342Z,99573.21
2019-02-06T21:32:44.847Z,99570.22
2019-02-06T21:35:12.294Z,99564.30
2019-02-06T21:37:39.763Z,99567.08
2019-02-06T21:40:08.122Z,99564.08
2019-02-06T21:42:35.869Z,99561.07
2019-02-06T21:45:03.105Z,99557.42
2019-02-06T21:47:30.545Z,99557.33
2019-02-06T21:49:58.009Z,99563.27
2019-02-06T21:52:26.376Z,99557.12
2019-02-06T21:54:53.928Z,99554.38
2019-02-06T21:57:21.413Z,99550.63
2019-02-06T21:59:48.933Z,99552.23
2019-02-06T22:02:16.399Z,99552.22
2019-02-06T22:04:43.851Z,99540.20
2019-02-06T22:07:11.306Z,99537.34
2019-02-06T22:09:38.772Z,99531.61
2019-02-06T22:12:06.234Z,99530.13
2019-02-06T22:14:33.724Z,99534.47
2019-02-06T22:17:01.218Z,99526.02
2019-02-06T22:19:28.699Z,99523.55
2019-02-06T22:21:56.174Z,99523.98
2019-02-06T22:24:23.673Z,99515.59
2019-02-06T22:26:51.115Z,99514.66
2019-02-06T22:29:18.542Z,99518.84
2019-02-06T22:31:45.991Z,99513.92
2019-02-06T22:34:13.485Z,99510.33
2019-02-06T22:36:42.015Z,99499.91
2019-02-06T22:39:09.522Z,99501.50
2019-02-06T22:41:36.985Z,99495.27
2019-02-06T22:44:06.610Z,99495.48
2019-02-06T22:46:32.000Z,99490.41
2019-02-06T22:48:59.481Z,99485.42
2019-02-06T22:51:26.964Z,99477.21
2019-02-06T22:53:54.454Z,99479.39
2019-02-06T22:56:21.889Z,99477.64
2019-02-06T22:58:50.735Z,99475.45
2019-02-06T23:01:18.276Z,99478.53
2019-02-06T23:03:45.706Z,99472.63
2019-02-06T23:06:13.178Z,99467.80
2019-02-06T23:08:40.638Z,99475.30
2019-02-06T23:11:08.122Z,99465.90
2019-02-06T23:13:35.546Z,99462.13
2019-02-06T23:16:02.992Z,99456.36
2019-02-06T23:18:30.431Z,99451.66
2019-02-06T23:20:57.887Z,99445.91
2019-02-06T23:23:25.368Z,99446.88
2019-02-06T23:25:52.827Z,99435.27
2019-02-06T23:28:20.270Z,99437.91
2019-02-06T23:30:47.720Z,99435.42
2019-02-06T23:33:15.180Z,99433.28
2019-02-06T23:35:42.608Z,99435.47
2019-02-06T23:38:10.195Z,99429.82
2019-02-06T23:40:37.577Z,99427.33
2019-02-06T23:43:05.085Z,99427.84
2019-02-06T23:45:32.851Z,99416.66
2019-02-06T23:48:00.294Z,99408.75
2019-02-06T23:50:27.835Z,99402.54
2019-02-06T23:52:55.281Z,99393.01
2019-02-06T23:55:22.711Z,99387.48
2019-02-06T23:57:50.138Z,99385.52
